Aérodrome :
LOGIN :

S'inscrire | Disclaimer

   EN    FR    IT 

 










Légende :    VFR   VFR Marginal   IFR   IFR Intensif   IFR Très Intensif
Visi : 
Plafond : 
>= 8 km
>= 3000ft
5 à 8 km
1000 à 3000 ft
1500m à 5 km
500 à 1000 ft
800 à 1500m
200 à 500 ft
< 800m
< 200 ft
Symboles :   Orages  Brouillard  Fortes neiges  Fortes précipitations  Vent > 20 kt
SIGMETs :   Divers  Orages  Givrage  Turbulence  Onde Orograph.  Cendres Volcan.






- Altitude de l'aérodrome : 1411 ft
- Code IATA : ZHI


LSZG - Grenchen

DERNIER METAR :
  • 241150Z 22015KT 9999 FEW045 SCT060 09/M00 Q1004

METARs EXPIRÉS :
  • 241120Z 25012KT 9999 FEW045 SCT060 08/M00 Q1004
  • 241050Z 24009KT 9999 FEW040 09/03 Q1004
  • 241020Z 24011KT 9999 FEW035 08/01 Q1004
  • 240950Z 25010KT 9999 FEW030 08/02 Q1004
  • 240920Z 24007KT 9999 FEW030 06/02 Q1004
  • 240850Z 25006KT 9999 FEW018 06/01 Q1003
  • 240820Z 20006KT 9999 FEW018 05/02 Q1003
  • 240750Z 18004KT 9999 FEW050 04/02 Q1003
  • 240720Z AUTO 19004KT 9999 NCD 03/02 Q1003

TAF TAF LSZG
Valide du 24 à 12h jusqu'au 24 à 21h UTC


241125Z 2412/2421 24010KT 9999 FEW040
PROB30
TEMPO 2414/2418 SHRA FEW040TCU
BECMG 2418/2421 VRB02KT
ATIS : +41 32 396 96 33



MET'MAP, la Météo Aéronautique d'un coup d'oeil ! - Copyright ORBIFLY Décembre 2007 - Disclaimer

ORBIFLY MET'MAP TEAM :

Programmation & Développement : Alexandra Zaïnal
Sur une idée originale de : Baudouin d'Aumeries
Soutien technique & logistique : Manuel Goepfert
Assistance : Marc-Olivier Méhu




SOURCES & CREDITS :

   NOAA